Time;durP1;ratioP1;P1;durP2;ratioP2;P2;SDS_P1;SDS_P2;PMS_P1;PMS_P2;Temp;Humidity;BMP_temperature;BMP_pressure;BME280_temperature;BME280_humidity;BME280_pressure;Samples;Min_cycle;Max_cycle;Signal;HPM_P1;HPM_P2
2024/04/10 00:00:21;;;;;;;0.70;0.70;;;;;;;10.13;71.27;97068.59;5470532;26;20009;-59
2024/04/10 00:02:48;;;;;;;0.70;0.70;;;;;;;10.27;70.98;97071.63;5439637;26;20524;-60
2024/04/10 00:05:17;;;;;;;0.80;0.80;;;;;;;9.81;71.24;97012.59;5441512;26;20540;-60
2024/04/10 00:07:44;;;;;;;0.80;0.80;;;;;;;10.11;70.92;97080.03;5441635;26;20036;-59
2024/04/10 00:10:13;;;;;;;0.80;0.80;;;;;;;9.97;71.51;97071.41;5441752;26;20003;-59
2024/04/10 00:12:41;;;;;;;0.70;0.70;;;;;;;9.98;71.55;97073.00;5441302;26;20011;-59
2024/04/10 00:15:08;;;;;;;0.80;0.80;;;;;;;9.31;71.46;96993.38;5470294;26;20026;-60
2024/04/10 00:17:34;;;;;;;0.75;0.75;;;;;;;9.82;72.13;97052.91;5442282;26;20013;-60
2024/04/10 00:20:02;;;;;;;0.80;0.80;;;;;;;9.88;72.53;97073.59;5435884;26;20024;-60
2024/04/10 00:22:31;;;;;;;0.80;0.80;;;;;;;9.91;71.25;97059.03;5405982;26;20004;-59
2024/04/10 00:24:58;;;;;;;0.80;0.80;;;;;;;9.61;71.25;97002.69;5406093;26;20000;-60
2024/04/10 00:27:25;;;;;;;0.70;0.70;;;;;;;9.92;71.80;97077.25;5433165;26;20010;-60
2024/04/10 00:29:52;;;;;;;0.70;0.70;;;;;;;9.67;72.09;97033.66;5406345;26;19999;-61
2024/04/10 00:32:19;;;;;;;0.80;0.80;;;;;;;9.91;71.81;97061.78;5405851;26;20031;-59
2024/04/10 00:34:46;;;;;;;0.70;0.70;;;;;;;9.91;71.95;97067.31;5433774;26;20012;-59
2024/04/10 00:37:13;;;;;;;0.70;0.70;;;;;;;9.94;71.41;97063.81;5420025;26;20053;-59
2024/04/10 00:39:40;;;;;;;0.75;0.75;;;;;;;9.80;72.43;97049.72;5441418;26;20346;-61
2024/04/10 00:42:07;;;;;;;0.70;0.70;;;;;;;9.32;73.01;97017.13;5441199;26;19999;-59
2024/04/10 00:44:46;;;;;;;0.70;0.70;;;;;;;9.46;72.18;97028.47;5440150;26;20003;-60
2024/04/10 00:47:13;;;;;;;0.70;0.70;;;;;;;9.60;72.87;97061.94;5440867;26;19999;-59
2024/04/10 00:49:42;;;;;;;0.70;0.70;;;;;;;9.49;73.81;97058.16;5470331;26;20066;-60
2024/04/10 00:52:09;;;;;;;0.70;0.70;;;;;;;9.58;73.14;97060.72;5441083;26;19995;-59
2024/04/10 00:54:37;;;;;;;0.70;0.70;;;;;;;9.52;73.20;97054.66;5441546;26;20011;-60
2024/04/10 00:57:04;;;;;;;0.70;0.70;;;;;;;9.19;72.94;96997.13;5464755;26;20071;-61
2024/04/10 00:59:32;;;;;;;0.70;0.70;;;;;;;9.55;73.16;97059.47;5465097;26;20058;-60
2024/04/10 01:01:59;;;;;;;0.70;0.70;;;;;;;9.55;72.67;97042.88;5469853;26;20449;-60
2024/04/10 01:04:26;;;;;;;0.70;0.70;;;;;;;9.42;73.24;97041.41;5441161;26;20003;-60
2024/04/10 01:06:53;;;;;;;0.70;0.70;;;;;;;9.40;73.84;97045.72;5469279;26;20015;-59
2024/04/10 01:09:20;;;;;;;0.68;0.68;;;;;;;9.18;74.46;97027.88;5441675;26;20003;-60
2024/04/10 01:11:47;;;;;;;0.80;0.80;;;;;;;8.89;74.53;97011.81;5441452;26;20452;-60
2024/04/10 01:14:14;;;;;;;0.70;0.70;;;;;;;9.26;74.64;97037.94;5440994;26;20014;-61
2024/04/10 01:16:41;;;;;;;0.70;0.70;;;;;;;8.87;74.25;96989.28;5440003;26;19999;-61
2024/04/10 01:19:08;;;;;;;0.70;0.70;;;;;;;9.19;74.16;97040.53;5468466;26;20022;-60
2024/04/10 01:21:35;;;;;;;0.70;0.70;;;;;;;9.11;75.36;97033.22;5411120;26;20009;-61
2024/04/10 01:24:02;;;;;;;0.70;0.70;;;;;;;9.09;75.26;97041.06;5432712;26;20003;-60
2024/04/10 01:26:29;;;;;;;0.70;0.70;;;;;;;8.94;75.58;97014.31;5402875;26;20031;-60
2024/04/10 01:28:56;;;;;;;0.70;0.70;;;;;;;8.40;76.08;96958.19;5421770;26;20486;-59
2024/04/10 01:31:26;;;;;;;0.70;0.70;;;;;;;8.92;76.28;97035.94;5404844;26;20003;-61
2024/04/10 01:33:53;;;;;;;0.70;0.70;;;;;;;8.95;76.27;97046.28;5404419;26;20459;-60
2024/04/10 01:36:20;;;;;;;0.70;0.70;;;;;;;8.91;76.94;97039.88;5404906;26;20008;-59
2024/04/10 01:38:47;;;;;;;0.70;0.70;;;;;;;8.91;77.43;97031.59;5433460;26;20000;-61
2024/04/10 01:41:14;;;;;;;0.70;0.70;;;;;;;8.83;77.54;97018.78;5405097;26;20077;-61
2024/04/10 01:43:42;;;;;;;0.70;0.70;;;;;;;8.78;76.85;97035.63;5404912;26;20549;-59
2024/04/10 01:46:08;;;;;;;0.70;0.70;;;;;;;8.97;77.25;97030.16;5402963;26;20076;-60
2024/04/10 01:48:35;;;;;;;0.70;0.70;;;;;;;8.78;77.27;97032.88;5404758;26;20487;-60
2024/04/10 01:51:03;;;;;;;0.70;0.70;;;;;;;8.94;76.46;97041.94;5404392;26;20015;-61
2024/04/10 01:53:30;;;;;;;0.65;0.65;;;;;;;8.90;76.25;97038.25;5403911;26;20035;-61
2024/04/10 01:55:57;;;;;;;0.60;0.60;;;;;;;8.67;76.97;97018.81;5406964;26;20077;-61
2024/04/10 01:58:24;;;;;;;0.70;0.70;;;;;;;7.74;77.01;96876.16;5407413;26;20011;-60
2024/04/10 02:00:50;;;;;;;0.70;0.70;;;;;;;8.94;76.22;97039.16;5435686;26;20127;-60
2024/04/10 02:03:17;;;;;;;0.68;0.68;;;;;;;7.73;79.18;96967.50;5407496;26;20019;-61
2024/04/10 02:05:45;;;;;;;0.63;0.63;;;;;;;8.48;78.69;97034.50;5407676;26;20023;-59
2024/04/10 02:08:12;;;;;;;0.70;0.70;;;;;;;8.53;78.03;97034.22;5399317;26;20528;-59
2024/04/10 02:10:38;;;;;;;0.68;0.68;;;;;;;8.53;77.60;97035.03;5372118;26;20012;-60
2024/04/10 02:13:05;;;;;;;0.60;0.60;;;;;;;8.59;77.56;97038.31;5401281;26;20522;-61
2024/04/10 02:15:32;;;;;;;0.60;0.60;;;;;;;8.63;77.12;97025.41;5408776;26;19999;-60
2024/04/10 02:17:59;;;;;;;0.60;0.60;;;;;;;8.03;80.25;97025.81;5436055;26;20007;-60
2024/04/10 02:20:26;;;;;;;0.60;0.60;;;;;;;8.20;79.77;97031.00;5436123;26;20462;-60
2024/04/10 02:22:53;;;;;;;0.60;0.60;;;;;;;8.31;79.85;97024.63;5434108;26;19995;-59
2024/04/10 02:25:20;;;;;;;0.70;0.70;;;;;;;8.33;80.57;97021.53;5443548;26;20071;-60
2024/04/10 02:27:47;;;;;;;0.60;0.60;;;;;;;8.28;80.24;97027.28;5443636;26;20010;-60
2024/04/10 02:30:14;;;;;;;0.60;0.60;;;;;;;8.26;80.55;97029.59;5443238;26;20021;-61
2024/04/10 02:32:41;;;;;;;0.70;0.70;;;;;;;7.97;80.28;96999.63;5443364;26;20016;-60
2024/04/10 02:35:08;;;;;;;0.70;0.70;;;;;;;8.24;79.87;97018.13;5442999;26;20011;-61
2024/04/10 02:37:35;;;;;;;0.60;0.60;;;;;;;8.29;79.38;97029.69;5442995;26;20010;-60
2024/04/10 02:40:03;;;;;;;0.60;0.60;;;;;;;8.05;79.67;97005.00;5471135;26;20458;-60
2024/04/10 02:42:30;;;;;;;0.60;0.60;;;;;;;8.22;79.37;97026.72;5443491;26;20002;-60
2024/04/10 02:44:57;;;;;;;0.70;0.70;;;;;;;7.90;79.04;96972.72;5442581;26;20477;-59
2024/04/10 02:47:24;;;;;;;0.63;0.63;;;;;;;8.23;79.82;97019.28;5442941;26;20015;-59
2024/04/10 02:49:51;;;;;;;0.70;0.70;;;;;;;8.08;79.31;96984.19;5471734;26;20011;-59
2024/04/10 02:52:18;;;;;;;0.60;0.60;;;;;;;8.39;78.60;97028.38;5442850;26;20011;-58
2024/04/10 02:54:45;;;;;;;0.70;0.70;;;;;;;8.47;78.09;97035.66;5430993;26;20431;-60
2024/04/10 02:57:12;;;;;;;0.70;0.70;;;;;;;8.27;78.75;97043.03;5427011;26;20468;-58
2024/04/10 02:59:38;;;;;;;0.60;0.60;;;;;;;7.81;79.25;97020.91;5443257;26;20009;-59
2024/04/10 03:02:05;;;;;;;0.60;0.60;;;;;;;8.13;80.58;97031.63;5411277;26;20018;-59
2024/04/10 03:04:32;;;;;;;0.60;0.60;;;;;;;8.15;80.62;97045.06;5406247;26;20069;-58
2024/04/10 03:07:03;;;;;;;0.60;0.60;;;;;;;7.67;80.65;96966.16;5433429;26;20007;-59
2024/04/10 03:09:30;;;;;;;0.60;0.60;;;;;;;8.12;81.22;97040.25;5406687;26;20010;-59
2024/04/10 03:11:57;;;;;;;0.68;0.68;;;;;;;8.17;81.34;97037.22;5406848;26;20015;-59
2024/04/10 03:14:24;;;;;;;0.60;0.60;;;;;;;8.16;81.28;97035.59;5407040;26;20076;-58
2024/04/10 03:16:51;;;;;;;0.65;0.65;;;;;;;8.07;80.90;97037.75;5406386;26;20011;-59
2024/04/10 03:19:19;;;;;;;0.60;0.60;;;;;;;7.67;80.75;96983.53;5406440;26;20000;-59
2024/04/10 03:21:46;;;;;;;0.60;0.60;;;;;;;7.96;81.03;97053.22;5416005;26;20013;-59
2024/04/10 03:24:13;;;;;;;0.60;0.60;;;;;;;7.73;80.31;96990.38;5470920;26;19999;-59
2024/04/10 03:26:40;;;;;;;0.60;0.60;;;;;;;7.96;80.28;97050.44;5442232;26;20014;-60
2024/04/10 03:29:07;;;;;;;0.65;0.65;;;;;;;7.85;80.25;97057.63;5470739;26;20557;-59
2024/04/10 03:31:34;;;;;;;0.60;0.60;;;;;;;7.74;79.64;97060.09;5440447;26;20003;-58
2024/04/10 03:34:00;;;;;;;0.60;0.60;;;;;;;7.22;80.31;96974.75;5442012;26;19999;-59
2024/04/10 03:36:28;;;;;;;0.60;0.60;;;;;;;7.66;80.10;97055.53;5442246;26;20015;-59
2024/04/10 03:38:55;;;;;;;0.60;0.60;;;;;;;7.59;81.07;97061.66;5442735;26;19994;-59
2024/04/10 03:41:22;;;;;;;0.60;0.60;;;;;;;7.56;81.33;97056.84;5442404;26;20007;-58
2024/04/10 03:43:49;;;;;;;0.60;0.60;;;;;;;7.58;81.41;97050.97;5470486;26;20006;-59
2024/04/10 03:46:17;;;;;;;0.60;0.60;;;;;;;7.50;81.58;97044.47;5470210;26;20006;-59
2024/04/10 03:48:44;;;;;;;0.60;0.60;;;;;;;7.51;81.53;97062.59;5470845;26;20013;-58
2024/04/10 03:51:12;;;;;;;0.60;0.60;;;;;;;7.41;83.00;97040.25;5442695;26;20003;-58
2024/04/10 03:53:40;;;;;;;0.60;0.60;;;;;;;7.63;83.30;97057.03;5442605;26;20015;-58
2024/04/10 03:56:07;;;;;;;0.60;0.60;;;;;;;7.78;82.99;97074.78;5441917;26;20015;-58
2024/04/10 03:58:36;;;;;;;0.60;0.60;;;;;;;7.79;83.09;97083.84;5442091;26;20006;-59
2024/04/10 04:01:03;;;;;;;0.60;0.60;;;;;;;7.82;83.48;97072.13;5442068;26;20003;-59
2024/04/10 04:03:30;;;;;;;0.60;0.60;;;;;;;7.86;82.94;97064.75;5441929;26;20195;-58
2024/04/10 04:05:57;;;;;;;0.60;0.60;;;;;;;6.74;82.00;96886.03;5442101;26;20332;-58
2024/04/10 04:08:24;;;;;;;0.60;0.60;;;;;;;7.89;81.98;97075.09;5424927;26;20003;-59
2024/04/10 04:10:54;;;;;;;0.60;0.60;;;;;;;7.89;81.31;97064.06;5441102;26;20003;-59
2024/04/10 04:13:21;;;;;;;0.65;0.65;;;;;;;8.09;81.04;97082.34;5441570;26;20632;-59
2024/04/10 04:15:48;;;;;;;0.70;0.70;;;;;;;8.11;80.52;97099.34;5470204;26;20002;-59
2024/04/10 04:18:15;;;;;;;0.60;0.60;;;;;;;8.25;80.85;97089.50;5440385;26;20017;-59
2024/04/10 04:20:42;;;;;;;0.60;0.60;;;;;;;8.42;80.28;97091.13;5453858;26;20014;-59
2024/04/10 04:23:09;;;;;;;0.70;0.70;;;;;;;8.46;79.78;97103.88;5406108;26;20000;-60
2024/04/10 04:25:36;;;;;;;0.70;0.70;;;;;;;8.60;79.44;97095.16;5405746;26;20022;-60
2024/04/10 04:28:03;;;;;;;0.60;0.60;;;;;;;8.68;79.73;97103.25;5406089;26;20000;-60
2024/04/10 04:30:30;;;;;;;0.60;0.60;;;;;;;8.75;79.60;97120.00;5433516;26;20007;-59
2024/04/10 04:33:00;;;;;;;0.70;0.70;;;;;;;8.91;79.52;97111.72;5405560;26;20035;-61
2024/04/10 04:35:28;;;;;;;0.70;0.70;;;;;;;8.43;79.47;97029.25;5405404;26;20469;-59
2024/04/10 04:37:57;;;;;;;0.65;0.65;;;;;;;9.10;79.50;97106.25;5405547;26;20499;-59
2024/04/10 04:40:31;;;;;;;0.70;0.70;;;;;;;9.31;79.04;97100.41;5432971;26;20003;-59
2024/04/10 04:42:59;;;;;;;0.70;0.70;;;;;;;9.56;76.99;97099.81;5405618;26;20442;-59
2024/04/10 04:45:26;;;;;;;0.80;0.80;;;;;;;9.50;75.70;97087.41;5405561;26;20008;-58
2024/04/10 04:47:53;;;;;;;0.80;0.80;;;;;;;9.38;75.53;97048.84;5405050;26;20035;-58
2024/04/10 04:50:20;;;;;;;0.80;0.80;;;;;;;10.05;73.92;97105.56;5405483;26;20003;-59
2024/04/10 04:52:47;;;;;;;0.80;0.80;;;;;;;9.63;74.33;97043.81;5405250;26;20554;-58
2024/04/10 04:55:14;;;;;;;0.70;0.70;;;;;;;10.11;74.10;97096.63;5404762;26;20003;-59
2024/04/10 04:57:41;;;;;;;0.80;0.80;;;;;;;10.25;74.39;97110.75;5433095;26;20027;-59
2024/04/10 05:00:12;;;;;;;0.80;0.80;;;;;;;10.45;72.62;97112.28;5432908;26;20494;-59
2024/04/10 05:02:39;;;;;;;0.80;0.80;;;;;;;10.73;70.81;97109.25;5404716;26;20014;-59
2024/04/10 05:05:21;;;;;;;0.70;0.70;;;;;;;10.55;71.29;97114.47;5403223;26;20011;-59
2024/04/10 05:07:48;;;;;;;0.80;0.80;;;;;;;10.72;70.63;97106.84;5405842;26;20018;-60
2024/04/10 05:10:16;;;;;;;0.80;0.80;;;;;;;10.68;70.86;97102.03;5403629;26;20335;-60
2024/04/10 05:12:44;;;;;;;0.80;0.80;;;;;;;10.83;69.94;97107.81;5404855;26;19999;-58
2024/04/10 05:15:12;;;;;;;0.90;0.90;;;;;;;10.50;69.98;97078.75;5404175;26;20610;-59
2024/04/10 05:17:41;;;;;;;0.80;0.80;;;;;;;10.99;69.35;97123.13;5404716;26;20031;-59
2024/04/10 05:20:11;;;;;;;0.80;0.80;;;;;;;11.06;69.74;97133.53;5404852;26;20458;-60
2024/04/10 05:22:44;;;;;;;0.80;0.80;;;;;;;10.70;70.67;97104.44;5426313;26;19999;-59
2024/04/10 05:25:11;;;;;;;0.80;0.80;;;;;;;11.08;70.94;97132.00;5440463;26;20357;-59
2024/04/10 05:27:38;;;;;;;0.80;0.80;;;;;;;11.21;71.00;97119.53;5468508;26;20468;-58
2024/04/10 05:30:07;;;;;;;0.90;0.90;;;;;;;10.89;71.06;97064.78;5441511;26;20013;-60
2024/04/10 05:32:35;;;;;;;0.85;0.85;;;;;;;11.34;70.76;97101.53;5443402;26;20075;-59
2024/04/10 05:35:10;;;;;;;0.90;0.90;;;;;;;11.65;70.95;97122.59;5444057;26;20011;-60
2024/04/10 05:37:38;;;;;;;0.90;0.90;;;;;;;11.87;68.63;97113.41;5443770;26;20546;-60
2024/04/10 05:40:16;;;;;;;0.90;0.90;;;;;;;12.11;68.96;97107.31;5443610;26;20003;-60
2024/04/10 05:42:45;;;;;;;1.00;1.00;;;;;;;12.05;67.58;97067.19;5443440;26;20010;-59
2024/04/10 05:45:13;;;;;;;0.90;0.90;;;;;;;12.53;64.12;97096.72;5443461;26;20461;-59
2024/04/10 05:47:42;;;;;;;1.00;1.00;;;;;;;12.58;63.53;97065.81;5471744;26;20327;-59
2024/04/10 05:50:10;;;;;;;1.00;1.00;;;;;;;13.11;62.73;97117.13;5444344;26;20014;-60
2024/04/10 05:52:40;;;;;;;1.00;1.00;;;;;;;12.62;62.31;96997.16;5443027;26;20019;-60
2024/04/10 05:55:07;;;;;;;1.10;1.10;;;;;;;13.53;61.55;97100.72;5443763;26;20007;-59
2024/04/10 05:57:34;;;;;;;1.15;1.15;;;;;;;13.64;61.05;97107.16;5442980;26;20017;-60
2024/04/10 06:00:01;;;;;;;1.10;1.10;;;;;;;13.79;60.22;97098.88;5444108;26;20031;-59
2024/04/10 06:02:28;;;;;;;1.20;1.20;;;;;;;14.03;59.62;97101.00;5443846;26;20490;-58
2024/04/10 06:04:57;;;;;;;1.20;1.20;;;;;;;14.10;59.36;97096.25;5443440;26;20010;-60
2024/04/10 06:07:24;;;;;;;1.17;1.17;;;;;;;14.30;58.87;97089.22;5441000;26;20457;-59
2024/04/10 06:09:55;;;;;;;1.10;1.10;;;;;;;14.51;58.62;97088.47;5443235;26;20015;-59
2024/04/10 06:12:23;;;;;;;1.40;1.40;;;;;;;14.74;58.15;97080.53;5442893;26;20003;-60
2024/04/10 06:14:54;;;;;;;1.20;1.20;;;;;;;14.95;57.37;97091.72;5443303;26;20006;-60
2024/04/10 06:17:22;;;;;;;1.17;1.17;;;;;;;15.15;56.55;97090.13;5443013;26;20019;-60
2024/04/10 06:19:49;;;;;;;1.40;1.40;;;;;;;15.42;56.42;97091.34;5468723;26;20007;-60
2024/04/10 06:22:16;;;;;;;1.38;1.38;;;;;;;15.18;58.32;97089.34;5407218;26;20004;-60
2024/04/10 06:24:49;;;;;;;1.20;1.20;;;;;;;15.50;57.39;97101.31;5407501;26;20428;-60
2024/04/10 06:27:16;;;;;;;1.20;1.20;;;;;;;15.73;56.82;97090.47;5407556;26;20307;-61
2024/04/10 06:29:46;;;;;;;1.50;1.50;;;;;;;15.94;57.30;97093.22;5408060;26;20004;-60
2024/04/10 06:32:14;;;;;;;1.40;1.40;;;;;;;15.97;57.54;97097.19;5406655;26;20323;-60
2024/04/10 06:34:41;;;;;;;1.60;1.60;;;;;;;16.07;56.34;97102.78;5405407;26;20004;-61
2024/04/10 06:37:08;;;;;;;1.50;1.50;;;;;;;16.12;56.48;97098.75;5407115;26;20015;-60
2024/04/10 06:39:35;;;;;;;1.30;1.30;;;;;;;15.57;54.91;97101.28;5407010;26;20051;-61
2024/04/10 06:42:02;;;;;;;1.40;1.40;;;;;;;15.84;54.51;97104.44;5405293;26;20048;-61
2024/04/10 06:44:29;;;;;;;1.30;1.30;;;;;;;16.19;54.46;97099.53;5434957;26;20011;-61
2024/04/10 06:46:57;;;;;;;1.50;1.50;;;;;;;15.70;54.18;96990.75;5416365;26;20542;-61
2024/04/10 06:49:27;;;;;;;1.42;1.42;;;;;;;16.10;53.47;97060.03;5471110;26;20013;-59
2024/04/10 06:51:55;;;;;;;1.70;1.70;;;;;;;16.57;52.14;97098.56;5470315;26;20071;-59
2024/04/10 06:54:22;;;;;;;1.50;1.50;;;;;;;16.88;51.41;97102.38;5438242;26;20083;-61
2024/04/10 06:56:49;;;;;;;1.60;1.60;;;;;;;17.08;50.08;97094.22;5399137;26;20000;-61
2024/04/10 06:59:16;;;;;;;1.83;1.83;;;;;;;17.41;48.54;97101.97;5404735;26;20007;-63
2024/04/10 07:01:43;;;;;;;1.60;1.60;;;;;;;17.37;48.14;97101.22;5407926;26;20016;-61
2024/04/10 07:04:11;;;;;;;1.80;1.80;;;;;;;17.20;49.44;97093.75;5380818;26;20015;-61
2024/04/10 07:06:37;;;;;;;1.70;1.70;;;;;;;17.56;48.52;97103.47;5375222;26;20555;-59
2024/04/10 07:09:04;;;;;;;1.63;1.63;;;;;;;17.45;47.80;97081.13;5398070;26;20554;-63
2024/04/10 07:11:31;;;;;;;1.70;1.70;;;;;;;17.86;48.66;97101.53;5391332;26;20864;-59
2024/04/10 07:14:01;;;;;;;1.70;1.70;;;;;;;17.88;49.42;97075.91;5388428;26;20001;-64
2024/04/10 07:16:30;;;;;;;1.70;1.70;;;;;;;17.60;47.25;97095.81;5369854;26;20015;-62
2024/04/10 07:18:58;;;;;;;1.90;1.90;;;;;;;17.66;47.41;97105.34;5367736;26;19996;-60
2024/04/10 07:21:26;;;;;;;1.65;1.65;;;;;;;17.42;46.22;97008.34;5373215;26;20012;-59
2024/04/10 07:23:53;;;;;;;2.10;2.10;;;;;;;18.22;45.69;97085.13;5381003;26;20910;-65
2024/04/10 07:26:26;;;;;;;1.90;1.90;;;;;;;18.42;46.89;97111.34;5371267;26;20060;-58
2024/04/10 07:28:55;;;;;;;1.92;1.92;;;;;;;18.68;46.80;97101.38;5397564;26;20000;-59
2024/04/10 07:31:33;;;;;;;1.85;1.85;;;;;;;18.90;46.17;97081.03;5377111;26;20032;-61
2024/04/10 07:34:01;;;;;;;1.90;1.90;;;;;;;19.12;45.26;97104.75;5404788;26;20004;-60
2024/04/10 07:36:31;;;;;;;1.92;1.92;;;;;;;18.46;44.98;96999.09;5381197;26;20011;-64
2024/04/10 07:39:05;;;;;;;1.98;1.98;;;;;;;17.42;45.09;96796.28;5382866;26;20327;-61
2024/04/10 07:41:32;;;;;;;2.05;2.05;;;;;;;19.54;44.29;97092.84;5405757;26;20023;-61
2024/04/10 07:44:00;;;;;;;2.03;2.03;;;;;;;19.42;44.92;97090.66;5404041;26;20008;-61
2024/04/10 07:46:27;;;;;;;2.17;2.17;;;;;;;19.74;44.26;97080.84;5405492;26;20015;-61
2024/04/10 07:48:57;;;;;;;2.10;2.10;;;;;;;19.54;43.95;96983.25;5405234;26;20132;-62
2024/04/10 07:51:26;;;;;;;2.20;2.20;;;;;;;20.07;43.36;97079.81;5387456;26;19999;-62
2024/04/10 07:53:53;;;;;;;1.73;1.73;;;;;;;19.74;43.20;97086.47;5427701;26;20011;-62
2024/04/10 07:56:20;;;;;;;2.03;2.03;;;;;;;19.80;43.30;97070.69;5374036;26;20008;-60
2024/04/10 07:58:48;;;;;;;2.15;2.15;;;;;;;20.09;42.34;97083.78;5404240;26;20593;-67
2024/04/10 08:01:17;;;;;;;2.20;2.20;;;;;;;20.00;43.05;97057.44;5391626;26;20464;-61
2024/04/10 08:03:45;;;;;;;2.10;2.10;;;;;;;20.34;42.27;97072.88;5469883;26;20003;-61
2024/04/10 08:06:12;;;;;;;1.88;1.88;;;;;;;20.12;42.27;97076.50;5439412;26;20450;-63
2024/04/10 08:08:42;;;;;;;2.22;2.22;;;;;;;19.98;41.48;96984.75;5399473;26;19999;-70
2024/04/10 08:11:14;;;;;;;2.30;2.30;;;;;;;20.38;41.67;97016.50;5378427;26;20019;-71
2024/04/10 08:13:41;;;;;;;2.50;2.40;;;;;;;20.85;41.56;97062.88;5368375;26;20091;-66
2024/04/10 08:16:11;;;;;;;2.47;2.38;;;;;;;20.93;40.49;97081.19;5377993;26;20047;-66
2024/04/10 08:18:41;;;;;;;2.33;2.30;;;;;;;20.80;40.35;97012.72;5405116;26;20077;-68
2024/04/10 08:21:11;;;;;;;2.60;2.50;;;;;;;21.36;39.79;97059.25;5405072;26;20011;-65
2024/04/10 08:23:40;;;;;;;2.60;2.50;;;;;;;21.32;40.09;97055.75;5404955;26;20366;-62
2024/04/10 08:26:14;;;;;;;2.35;2.30;;;;;;;21.37;39.80;97032.66;5369478;26;20012;-62
2024/04/10 08:28:48;;;;;;;2.60;2.50;;;;;;;21.48;39.18;97016.25;5402355;26;20013;-72
2024/04/10 08:31:17;;;;;;;2.60;2.50;;;;;;;21.47;39.45;97047.69;5403753;26;20003;-60
2024/04/10 08:33:45;;;;;;;2.28;2.28;;;;;;;20.71;40.45;97052.72;5390122;26;20000;-64
2024/04/10 08:36:14;;;;;;;2.22;2.22;;;;;;;21.15;40.66;97056.94;5364430;26;20042;-63
2024/04/10 08:38:43;;;;;;;2.28;2.28;;;;;;;21.42;40.47;97051.06;5396657;26;20010;-62
2024/04/10 08:41:14;;;;;;;2.30;2.30;;;;;;;20.98;39.92;96942.69;5398632;26;20004;-67
2024/04/10 08:43:43;;;;;;;2.25;2.22;;;;;;;21.94;38.83;97055.31;5434904;26;20014;-62
2024/04/10 08:46:11;;;;;;;2.40;2.40;;;;;;;15.81;38.76;96122.91;5404308;26;20013;-69
2024/04/10 08:48:42;;;;;;;2.53;2.42;;;;;;;21.21;39.65;97052.41;5375036;26;20018;-61
2024/04/10 08:51:12;;;;;;;2.50;2.40;;;;;;;21.52;39.42;97025.44;5367655;26;20004;-72
2024/04/10 08:53:44;;;;;;;2.10;2.10;;;;;;;20.79;39.31;96968.88;5392615;26;20031;-71
2024/04/10 08:56:13;;;;;;;2.60;2.50;;;;;;;21.43;38.74;96991.44;5390928;26;20019;-70
2024/04/10 08:58:40;;;;;;;2.20;2.20;;;;;;;21.46;38.00;96934.19;5404652;26;20063;-61
2024/04/10 09:01:07;;;;;;;2.70;2.60;;;;;;;22.27;36.87;97014.47;5392974;26;20048;-73
2024/04/10 09:03:35;;;;;;;2.25;2.25;;;;;;;22.72;37.53;97036.16;5368689;26;20074;-64
2024/04/10 09:06:09;;;;;;;2.67;2.58;;;;;;;22.84;34.87;97021.25;5368534;26;20033;-60
2024/04/10 09:08:37;;;;;;;2.60;2.50;;;;;;;22.68;35.51;97029.81;5379416;26;20007;-66
2024/04/10 09:11:05;;;;;;;2.50;2.40;;;;;;;23.01;35.87;97036.84;5399267;26;20002;-71
2024/04/10 09:13:32;;;;;;;2.78;2.67;;;;;;;22.80;35.77;97026.22;5401885;26;20019;-63
2024/04/10 09:15:59;;;;;;;2.63;2.53;;;;;;;22.41;35.24;96903.94;5431143;26;20000;-66
2024/04/10 09:18:27;;;;;;;2.88;2.78;;;;;;;23.33;34.85;97023.28;5400131;26;20011;-62
2024/04/10 09:21:10;;;;;;;2.95;2.85;;;;;;;23.04;34.09;97025.44;5367980;26;20044;-67
2024/04/10 09:23:38;;;;;;;2.65;2.55;;;;;;;22.64;35.49;97026.31;5385420;26;20529;-65
2024/04/10 09:26:06;;;;;;;2.70;2.60;;;;;;;22.88;35.00;97033.22;5400003;26;20314;-68
2024/04/10 09:28:34;;;;;;;2.40;2.35;;;;;;;22.55;34.68;97029.00;5370620;26;20015;-71
2024/04/10 09:31:01;;;;;;;2.50;2.40;;;;;;;22.77;33.59;97007.34;5386237;26;20039;-65
2024/04/10 09:33:33;;;;;;;2.53;2.42;;;;;;;23.25;33.01;97021.13;5402479;26;19999;-63
2024/04/10 09:36:03;;;;;;;2.60;2.50;;;;;;;23.42;32.53;97022.59;5398734;26;20011;-64
2024/04/10 09:38:33;;;;;;;2.75;2.65;;;;;;;23.10;33.24;97034.13;5409634;26;20335;-76
2024/04/10 09:41:05;;;;;;;2.55;2.45;;;;;;;23.48;33.12;97006.63;5402533;26;20027;-64
2024/04/10 09:43:32;;;;;;;3.05;2.95;;;;;;;23.70;32.30;97008.28;5379426;26;20339;-66
2024/04/10 09:46:03;;;;;;;2.80;2.70;;;;;;;23.63;32.93;97004.91;5368086;26;20004;-66
2024/04/10 09:48:32;;;;;;;2.88;2.78;;;;;;;23.98;32.86;97031.94;5386015;26;20015;-67
2024/04/10 09:51:04;;;;;;;2.80;2.70;;;;;;;23.95;32.77;96942.28;5422882;26;20008;-66
2024/04/10 09:53:33;;;;;;;3.00;2.90;;;;;;;21.62;31.63;96559.19;5390777;26;20011;-64
2024/04/10 09:56:09;;;;;;;2.80;2.70;;;;;;;24.27;31.58;96924.91;5370532;26;20033;-62
2024/04/10 09:58:39;;;;;;;3.30;3.20;;;;;;;24.47;31.79;96950.03;5370720;26;20008;-67
2024/04/10 10:01:06;;;;;;;3.10;3.00;;;;;;;24.75;31.60;96961.06;5375215;26;20198;-64
2024/04/10 10:03:33;;;;;;;2.65;2.55;;;;;;;23.95;31.97;96908.31;5372080;26;20110;-63
2024/04/10 10:06:06;;;;;;;3.22;3.13;;;;;;;24.54;31.52;96956.22;5364333;26;20015;-66
2024/04/10 10:08:34;;;;;;;3.28;3.17;;;;;;;24.84;32.08;96980.13;5409383;26;20010;-66
2024/04/10 10:11:02;;;;;;;3.20;3.10;;;;;;;24.85;31.80;96982.50;5375999;26;20499;-67
2024/04/10 10:13:31;;;;;;;3.10;3.00;;;;;;;25.21;32.32;96976.97;5372334;26;20000;-66
2024/04/10 10:15:59;;;;;;;3.28;3.17;;;;;;;24.83;31.71;96934.00;5370375;26;20779;-62
2024/04/10 10:18:30;;;;;;;2.90;2.80;;;;;;;24.04;32.46;96914.09;5422408;26;20010;-67
2024/04/10 10:21:05;;;;;;;3.45;3.35;;;;;;;23.92;32.53;96988.47;5396241;26;20015;-72
2024/04/10 10:23:34;;;;;;;2.97;2.88;;;;;;;24.51;33.08;96971.31;5406578;26;20015;-66
2024/04/10 10:26:01;;;;;;;3.08;2.97;;;;;;;24.25;31.78;96955.72;5402326;26;20507;-65
2024/04/10 10:28:31;;;;;;;3.20;3.10;;;;;;;24.38;31.17;96925.28;5407201;26;20888;-64
2024/04/10 10:31:09;;;;;;;3.10;3.00;;;;;;;25.10;31.12;96975.84;5406101;26;20004;-66
2024/04/10 10:33:40;;;;;;;3.40;3.30;;;;;;;24.79;31.45;96933.38;5373960;26;20000;-64
2024/04/10 10:36:09;;;;;;;3.10;3.00;;;;;;;24.29;31.95;96857.28;5380427;26;20019;-66
2024/04/10 10:38:36;;;;;;;3.45;3.35;;;;;;;25.36;31.11;96965.03;5394003;26;20466;-64
2024/04/10 10:41:06;;;;;;;3.17;3.08;;;;;;;25.02;31.52;96946.22;5406540;26;20004;-67
2024/04/10 10:43:41;;;;;;;3.33;3.22;;;;;;;25.07;30.34;96884.00;5372154;26;20154;-65
2024/04/10 10:46:10;;;;;;;3.40;3.30;;;;;;;24.75;30.18;96960.28;5368892;26;20262;-63
2024/04/10 10:48:38;;;;;;;3.30;3.20;;;;;;;25.30;30.47;96954.31;5394045;26;20363;-66
2024/04/10 10:51:05;;;;;;;3.28;3.17;;;;;;;25.61;30.97;96959.13;5406736;26;20006;-66
2024/04/10 10:53:35;;;;;;;3.20;3.10;;;;;;;25.05;30.17;96956.59;5406378;26;20003;-63
2024/04/10 10:56:02;;;;;;;3.35;3.25;;;;;;;25.37;30.39;96941.88;5404280;26;20009;-68
2024/04/10 10:58:29;;;;;;;3.17;3.08;;;;;;;25.88;29.71;96951.38;5392144;26;20605;-69
2024/04/10 11:00:56;;;;;;;3.50;3.40;;;;;;;25.67;30.36;96872.09;5397021;26;20043;-66
2024/04/10 11:03:25;;;;;;;3.60;3.50;;;;;;;26.22;30.06;96930.41;5392588;26;20353;-64
2024/04/10 11:06:06;;;;;;;3.28;3.17;;;;;;;26.58;29.51;96930.28;5380921;26;20012;-65
2024/04/10 11:08:34;;;;;;;3.45;3.35;;;;;;;26.06;28.03;96842.72;5404407;26;19995;-68
2024/04/10 11:11:01;;;;;;;3.63;3.53;;;;;;;26.36;28.38;96868.03;5404771;26;20068;-67
2024/04/10 11:13:28;;;;;;;3.70;3.60;;;;;;;26.64;29.10;96951.94;5406198;26;20412;-64
2024/04/10 11:15:57;;;;;;;4.05;3.95;;;;;;;26.89;28.93;96950.72;5380461;26;20035;-63
2024/04/10 11:18:24;;;;;;;3.65;3.55;;;;;;;26.76;28.80;96930.28;5393852;26;20003;-71
2024/04/10 11:20:53;;;;;;;3.67;3.58;;;;;;;26.85;29.68;96915.22;5402813;26;20072;-66
2024/04/10 11:23:20;;;;;;;4.00;3.90;;;;;;;26.70;30.29;96952.84;5406519;26;20097;-66
2024/04/10 11:25:47;;;;;;;3.70;3.60;;;;;;;27.29;28.31;96939.00;5407199;26;20460;-69
2024/04/10 11:28:14;;;;;;;4.00;3.90;;;;;;;27.64;27.43;96942.88;5405967;26;20056;-63
2024/04/10 11:30:41;;;;;;;3.80;3.70;;;;;;;26.63;27.53;96861.44;5377086;26;20332;-72
2024/04/10 11:33:08;;;;;;;3.63;3.53;;;;;;;25.25;28.34;96841.50;5400421;26;20623;-66
2024/04/10 11:35:39;;;;;;;3.40;3.30;;;;;;;25.97;27.00;96937.16;5398854;26;19999;-68
2024/04/10 11:38:07;;;;;;;3.67;3.58;;;;;;;25.51;29.52;96886.59;5397460;26;19999;-65
2024/04/10 11:40:33;;;;;;;3.28;3.17;;;;;;;24.96;28.96;96801.47;5396013;26;20060;-65